createdAt,value
2018-07-25T00:02:08.446Z,17.90
2018-07-25T00:10:05.090Z,17.80
2018-07-25T00:12:33.975Z,17.80
2018-07-25T00:18:02.840Z,18.00
2018-07-25T00:20:30.891Z,17.90
2018-07-25T00:25:26.766Z,17.80
2018-07-25T00:27:54.805Z,17.80
2018-07-25T00:32:51.073Z,17.50
2018-07-25T00:35:19.047Z,17.40
2018-07-25T00:37:47.504Z,17.40
2018-07-25T00:40:15.420Z,17.50
2018-07-25T00:42:43.986Z,17.50
2018-07-25T00:45:11.830Z,17.40
2018-07-25T00:47:41.050Z,17.40
2018-07-25T00:50:09.959Z,17.30
2018-07-25T00:52:37.936Z,17.30
2018-07-25T00:55:05.856Z,17.30
2018-07-25T00:57:33.768Z,17.40
2018-07-25T01:00:02.239Z,17.50
2018-07-25T01:02:30.164Z,17.50
2018-07-25T01:04:58.090Z,17.50
2018-07-25T01:07:27.124Z,17.40
2018-07-25T01:12:22.914Z,17.30
2018-07-25T01:14:50.873Z,17.40
2018-07-25T01:17:19.474Z,17.40
2018-07-25T01:19:48.184Z,17.30
2018-07-25T01:22:16.100Z,17.20
2018-07-25T01:24:44.086Z,17.20
2018-07-25T01:27:12.699Z,17.20
2018-07-25T01:29:40.620Z,17.10
2018-07-25T01:32:08.529Z,17.10
2018-07-25T01:34:36.425Z,17.20
2018-07-25T01:37:04.325Z,17.20
2018-07-25T01:39:32.188Z,17.20
2018-07-25T01:42:00.108Z,17.10
2018-07-25T01:44:28.027Z,17.00
2018-07-25T01:46:55.962Z,16.90
2018-07-25T01:49:23.858Z,16.90
2018-07-25T01:51:51.739Z,16.80
2018-07-25T01:54:19.683Z,16.70
2018-07-25T01:59:15.393Z,16.60
2018-07-25T02:01:44.123Z,16.60
2018-07-25T02:04:12.281Z,16.60
2018-07-25T02:06:41.130Z,16.60
2018-07-25T02:09:10.921Z,16.70
2018-07-25T02:11:39.071Z,16.90
2018-07-25T02:14:06.997Z,16.90
2018-07-25T02:16:34.889Z,16.90
2018-07-25T02:21:31.780Z,16.70
2018-07-25T02:23:59.871Z,16.50
2018-07-25T02:26:27.777Z,16.50
2018-07-25T02:28:56.235Z,16.50
2018-07-25T02:31:24.147Z,16.50
2018-07-25T02:33:59.085Z,16.60
2018-07-25T02:36:27.017Z,16.80
2018-07-25T02:38:54.944Z,16.80
2018-07-25T02:41:22.949Z,16.60
2018-07-25T02:46:18.968Z,16.50
2018-07-25T02:51:29.685Z,16.30
2018-07-25T02:53:58.091Z,16.40
2018-07-25T02:56:27.043Z,16.50
2018-07-25T02:58:55.135Z,16.40
2018-07-25T03:03:52.162Z,16.40
2018-07-25T03:06:20.404Z,16.40
2018-07-25T03:08:48.271Z,16.50
2018-07-25T03:11:16.178Z,16.60
2018-07-25T03:13:44.112Z,16.60
2018-07-25T03:16:12.818Z,16.70
2018-07-25T03:18:41.944Z,16.70
2018-07-25T03:21:09.928Z,16.70
2018-07-25T03:26:06.699Z,16.70
2018-07-25T03:28:34.627Z,16.70
2018-07-25T03:31:02.622Z,16.70
2018-07-25T03:35:59.378Z,16.70
2018-07-25T03:43:23.814Z,16.90
2018-07-25T03:45:52.168Z,16.80
2018-07-25T03:48:20.150Z,16.80
2018-07-25T03:50:48.096Z,16.90
2018-07-25T03:55:44.552Z,17.00
2018-07-25T03:58:13.373Z,17.00
2018-07-25T04:05:37.565Z,16.90
2018-07-25T04:08:05.547Z,16.90
2018-07-25T04:13:01.829Z,16.80
2018-07-25T04:15:29.803Z,16.80
2018-07-25T04:17:57.767Z,16.70
2018-07-25T04:20:25.718Z,16.60
2018-07-25T04:22:54.307Z,16.70
2018-07-25T04:25:22.211Z,16.70
2018-07-25T04:27:50.215Z,16.70
2018-07-25T04:30:18.165Z,16.70
2018-07-25T04:32:46.898Z,16.70
2018-07-25T04:35:16.095Z,16.70
2018-07-25T04:37:44.246Z,16.70
2018-07-25T04:40:12.826Z,16.70
2018-07-25T04:45:09.964Z,16.80
2018-07-25T04:47:38.180Z,16.80
2018-07-25T04:50:06.371Z,16.90
2018-07-25T04:52:36.052Z,17.00
2018-07-25T04:55:04.757Z,17.00
2018-07-25T05:00:00.963Z,17.30
2018-07-25T05:02:28.871Z,17.40
2018-07-25T05:04:56.821Z,17.50
2018-07-25T05:07:25.233Z,17.50
2018-07-25T05:09:53.137Z,17.60
2018-07-25T05:12:21.109Z,17.70
2018-07-25T05:14:49.593Z,17.80
2018-07-25T05:17:17.546Z,17.90
2018-07-25T05:19:46.237Z,18.00
2018-07-25T05:22:14.207Z,18.10
2018-07-25T05:29:40.076Z,18.60
2018-07-25T05:34:35.882Z,18.80
2018-07-25T05:37:04.626Z,19.10
2018-07-25T05:39:33.173Z,19.50
2018-07-25T05:42:01.656Z,20.00
2018-07-25T05:44:29.767Z,20.60
2018-07-25T05:46:57.791Z,21.10
2018-07-25T05:49:26.028Z,21.50
2018-07-25T05:51:53.968Z,21.80
2018-07-25T05:54:21.866Z,22.20
2018-07-25T05:56:49.919Z,22.40
2018-07-25T05:59:19.099Z,22.60
2018-07-25T06:01:47.070Z,23.10
2018-07-25T06:04:15.748Z,23.40
2018-07-25T06:09:11.512Z,23.70
2018-07-25T06:11:40.258Z,24.00
2018-07-25T06:16:36.909Z,24.30
2018-07-25T06:19:04.875Z,24.50
2018-07-25T06:21:34.856Z,24.70
2018-07-25T06:24:02.901Z,25.20
2018-07-25T06:28:59.369Z,25.10
2018-07-25T06:31:29.247Z,25.20
2018-07-25T06:33:57.660Z,25.00
2018-07-25T06:36:25.599Z,24.90
2018-07-25T06:41:23.601Z,24.40
2018-07-25T06:46:20.180Z,24.30
2018-07-25T06:53:44.565Z,25.10
2018-07-25T06:56:12.499Z,25.40
2018-07-25T06:58:40.449Z,25.70
2018-07-25T07:01:08.420Z,26.00
2018-07-25T07:03:36.303Z,26.30
2018-07-25T07:06:04.270Z,26.40
2018-07-25T07:08:32.232Z,26.50
2018-07-25T07:11:00.143Z,26.60
2018-07-25T07:13:27.999Z,26.70
2018-07-25T07:15:55.908Z,26.80
2018-07-25T07:23:19.472Z,26.40
2018-07-25T07:28:15.723Z,26.50
2018-07-25T07:30:45.619Z,26.50
2018-07-25T07:33:14.161Z,26.50
2018-07-25T07:38:09.783Z,26.80
2018-07-25T07:45:33.508Z,26.90
2018-07-25T07:48:02.155Z,26.90
2018-07-25T07:50:31.482Z,27.10
2018-07-25T07:55:27.171Z,27.20
2018-07-25T07:57:55.087Z,27.10
2018-07-25T08:02:50.949Z,27.20
2018-07-25T08:05:19.843Z,27.20
2018-07-25T08:07:47.865Z,27.20
2018-07-25T08:10:15.785Z,27.10
2018-07-25T08:12:44.341Z,27.20
2018-07-25T08:15:12.273Z,27.40
2018-07-25T08:20:08.092Z,27.70
2018-07-25T08:25:04.172Z,28.10
2018-07-25T08:27:32.090Z,28.20
2018-07-25T08:30:00.005Z,28.40
2018-07-25T08:32:27.984Z,28.30
2018-07-25T08:34:55.987Z,28.20
2018-07-25T08:39:52.711Z,28.60
2018-07-25T08:42:20.660Z,28.80
2018-07-25T08:47:17.447Z,28.80
2018-07-25T08:49:45.429Z,28.50
2018-07-25T08:52:14.173Z,28.40
2018-07-25T08:57:10.804Z,27.90
2018-07-25T08:59:39.920Z,27.70
2018-07-25T09:04:35.679Z,27.20
2018-07-25T09:07:03.678Z,27.20
2018-07-25T09:09:31.613Z,27.00
2018-07-25T09:14:28.439Z,26.70
2018-07-25T09:16:56.451Z,26.60
2018-07-25T09:19:24.721Z,26.70
2018-07-25T09:21:52.634Z,26.80
2018-07-25T09:24:20.596Z,26.80
2018-07-25T09:26:48.511Z,26.90
2018-07-25T09:29:16.512Z,27.00
2018-07-25T09:31:44.768Z,27.20
2018-07-25T09:34:12.750Z,27.40
2018-07-25T09:36:40.701Z,27.50
2018-07-25T09:39:10.545Z,27.60
2018-07-25T09:44:17.764Z,27.80
2018-07-25T09:49:14.266Z,28.30
2018-07-25T09:51:42.465Z,28.40
2018-07-25T09:54:11.870Z,28.40
2018-07-25T09:56:39.889Z,28.30
2018-07-25T09:59:08.123Z,28.10
2018-07-25T10:01:36.078Z,27.90
2018-07-25T10:04:05.891Z,27.50
2018-07-25T10:06:33.941Z,27.20
2018-07-25T10:09:01.933Z,27.10
2018-07-25T10:11:30.425Z,27.10
2018-07-25T10:13:59.443Z,27.30
2018-07-25T10:16:27.415Z,27.80
2018-07-25T10:18:55.783Z,28.30
2018-07-25T10:21:25.223Z,28.70
2018-07-25T10:23:53.202Z,29.00
2018-07-25T10:26:21.698Z,29.10
2018-07-25T10:28:50.243Z,29.00
2018-07-25T10:31:19.302Z,29.10
2018-07-25T10:33:47.660Z,29.20
2018-07-25T10:36:16.536Z,29.10
2018-07-25T10:38:45.042Z,28.90
2018-07-25T10:41:13.815Z,28.50
2018-07-25T10:43:42.353Z,28.20
2018-07-25T10:46:10.325Z,28.00
2018-07-25T10:48:38.345Z,28.00
2018-07-25T10:51:06.945Z,27.90
2018-07-25T10:53:35.502Z,27.80
2018-07-25T10:56:03.509Z,28.00
2018-07-25T10:58:32.389Z,28.40
2018-07-25T11:01:00.284Z,28.70
2018-07-25T11:03:28.247Z,28.80
2018-07-25T11:05:56.191Z,28.70
2018-07-25T11:08:24.169Z,28.30
2018-07-25T11:10:52.124Z,28.00
2018-07-25T11:13:20.014Z,28.10
2018-07-25T11:15:47.981Z,28.20
2018-07-25T11:18:16.935Z,28.40
2018-07-25T11:20:44.818Z,28.60
2018-07-25T11:23:14.204Z,28.60
2018-07-25T11:25:43.359Z,28.70
2018-07-25T11:28:15.894Z,28.80
2018-07-25T11:30:43.845Z,29.10
2018-07-25T11:33:11.775Z,29.00
2018-07-25T11:35:39.685Z,29.00
2018-07-25T11:45:30.953Z,29.10
2018-07-25T11:50:26.636Z,29.20
2018-07-25T11:52:54.958Z,29.30
2018-07-25T11:57:50.753Z,28.80
2018-07-25T12:00:18.769Z,28.60
2018-07-25T12:02:46.823Z,28.30
2018-07-25T12:05:15.111Z,28.30
2018-07-25T12:07:43.039Z,28.20
2018-07-25T12:12:38.881Z,28.20
2018-07-25T12:15:09.768Z,28.20
2018-07-25T12:17:38.346Z,28.40
2018-07-25T12:20:07.039Z,28.30
2018-07-25T12:22:35.009Z,28.20
2018-07-25T12:25:03.097Z,28.20
2018-07-25T12:27:31.959Z,28.30
2018-07-25T12:29:59.882Z,28.50
2018-07-25T12:32:28.412Z,28.60
2018-07-25T12:34:56.918Z,28.60
2018-07-25T12:37:25.290Z,28.70
2018-07-25T12:39:53.256Z,28.90
2018-07-25T12:42:21.198Z,29.00
2018-07-25T12:47:18.429Z,29.00
2018-07-25T12:49:46.348Z,29.30
2018-07-25T12:52:15.289Z,29.60
2018-07-25T12:54:43.284Z,29.60
2018-07-25T12:59:39.742Z,29.80
2018-07-25T13:02:08.954Z,29.90
2018-07-25T13:04:36.899Z,29.80
2018-07-25T13:07:05.464Z,29.60
2018-07-25T13:12:01.600Z,29.40
2018-07-25T13:14:29.553Z,29.60
2018-07-25T13:16:57.969Z,29.80
2018-07-25T13:19:26.448Z,29.90
2018-07-25T13:21:54.385Z,30.00
2018-07-25T13:24:22.339Z,30.00
2018-07-25T13:26:50.887Z,30.00
2018-07-25T13:31:47.322Z,30.10
2018-07-25T13:36:43.094Z,30.20
2018-07-25T13:39:11.050Z,30.00
2018-07-25T13:41:38.993Z,29.70
2018-07-25T13:44:07.068Z,29.40
2018-07-25T13:46:35.035Z,29.20
2018-07-25T13:51:32.143Z,28.70
2018-07-25T13:54:00.115Z,28.60
2018-07-25T13:56:29.011Z,28.80
2018-07-25T13:58:56.935Z,29.20
2018-07-25T14:03:53.133Z,29.70
2018-07-25T14:06:21.084Z,30.00
2018-07-25T14:08:49.052Z,30.30
2018-07-25T14:11:17.012Z,30.60
2018-07-25T14:16:13.423Z,30.90
2018-07-25T14:21:09.184Z,30.60
2018-07-25T14:26:05.676Z,29.90
2018-07-25T14:28:33.757Z,29.80
2018-07-25T14:31:01.904Z,29.80
2018-07-25T14:33:30.383Z,30.10
2018-07-25T14:35:58.480Z,30.40
2018-07-25T14:38:27.479Z,30.60
2018-07-25T14:40:55.443Z,30.90
2018-07-25T14:43:23.468Z,30.90
2018-07-25T14:45:51.444Z,31.10
2018-07-25T14:50:47.627Z,30.50
2018-07-25T14:53:15.576Z,30.10
2018-07-25T14:55:43.525Z,30.00
2018-07-25T14:58:12.008Z,29.90
2018-07-25T15:03:07.785Z,29.80
2018-07-25T15:05:36.247Z,29.60
2018-07-25T15:08:04.580Z,29.60
2018-07-25T15:10:32.495Z,29.80
2018-07-25T15:13:00.477Z,30.10
2018-07-25T15:17:57.339Z,30.30
2018-07-25T15:20:25.610Z,30.80
2018-07-25T15:22:54.342Z,30.90
2018-07-25T15:27:50.441Z,31.00
2018-07-25T15:30:18.372Z,31.10
2018-07-25T15:32:46.656Z,31.20
2018-07-25T15:35:14.628Z,31.40
2018-07-25T15:37:43.393Z,31.20
2018-07-25T15:40:11.462Z,31.10
2018-07-25T15:42:39.358Z,31.20
2018-07-25T15:45:08.259Z,30.70
2018-07-25T15:47:42.207Z,29.60
2018-07-25T15:50:10.804Z,28.80
2018-07-25T15:52:39.287Z,28.20
2018-07-25T15:55:07.228Z,27.80
2018-07-25T15:57:35.128Z,27.50
2018-07-25T16:00:03.622Z,27.50
2018-07-25T16:02:31.552Z,27.60
2018-07-25T16:04:59.472Z,27.70
2018-07-25T16:09:55.660Z,27.40
2018-07-25T16:12:24.952Z,27.40
2018-07-25T16:14:53.440Z,27.40
2018-07-25T16:17:21.387Z,27.40
2018-07-25T16:24:45.108Z,27.20
2018-07-25T16:27:13.724Z,26.90
2018-07-25T16:29:42.568Z,26.90
2018-07-25T16:32:10.526Z,26.80
2018-07-25T16:34:38.500Z,27.00
2018-07-25T16:37:06.482Z,26.90
2018-07-25T16:39:34.420Z,26.60
2018-07-25T16:44:30.204Z,26.20
2018-07-25T16:46:58.468Z,26.10
2018-07-25T16:49:26.436Z,26.10
2018-07-25T16:51:54.415Z,26.00
2018-07-25T16:54:23.035Z,26.00
2018-07-25T16:56:51.340Z,25.80
2018-07-25T16:59:19.233Z,25.80
2018-07-25T17:01:47.151Z,25.80
2018-07-25T17:06:43.394Z,25.70
2018-07-25T17:09:12.249Z,25.60
2018-07-25T17:11:40.531Z,25.50
2018-07-25T17:14:08.495Z,25.60
2018-07-25T17:16:36.512Z,25.60
2018-07-25T17:19:04.469Z,25.70
2018-07-25T17:21:33.324Z,25.70
2018-07-25T17:24:01.882Z,25.80
2018-07-25T17:28:59.333Z,25.70
2018-07-25T17:36:23.921Z,25.60
2018-07-25T17:38:51.818Z,25.50
2018-07-25T17:41:19.811Z,25.50
2018-07-25T17:43:47.780Z,25.40
2018-07-25T17:51:12.512Z,25.30
2018-07-25T17:56:08.302Z,25.20
2018-07-25T17:58:36.279Z,25.20
2018-07-25T18:01:04.738Z,25.10
2018-07-25T18:03:32.778Z,24.90
2018-07-25T18:06:00.978Z,24.80
2018-07-25T18:08:28.937Z,24.70
2018-07-25T18:10:56.893Z,24.60
2018-07-25T18:13:30.483Z,24.50
2018-07-25T18:15:58.473Z,24.50
2018-07-25T18:20:54.821Z,24.30
2018-07-25T18:23:22.882Z,24.20
2018-07-25T18:25:51.445Z,24.10
2018-07-25T18:28:19.444Z,24.10
2018-07-25T18:30:48.128Z,24.00
2018-07-25T18:33:16.770Z,23.90
2018-07-25T18:35:45.347Z,23.90
2018-07-25T18:38:13.288Z,23.80
2018-07-25T18:40:42.071Z,23.80
2018-07-25T18:43:10.952Z,23.70
2018-07-25T18:45:39.745Z,23.50
2018-07-25T18:48:07.793Z,23.40
2018-07-25T18:50:36.568Z,23.30
2018-07-25T18:53:04.792Z,23.20
2018-07-25T18:55:32.772Z,23.10
2018-07-25T18:58:00.776Z,22.90
2018-07-25T19:00:29.547Z,22.70
2018-07-25T19:02:58.371Z,22.60
2018-07-25T19:08:00.883Z,22.50
2018-07-25T19:10:29.158Z,22.40
2018-07-25T19:12:58.071Z,22.40
2018-07-25T19:15:31.560Z,22.40
2018-07-25T19:18:00.838Z,22.30
2018-07-25T19:20:29.545Z,22.20
2018-07-25T19:25:25.587Z,22.00
2018-07-25T19:30:21.970Z,21.90
2018-07-25T19:32:50.521Z,21.70
2018-07-25T19:35:19.165Z,21.80
2018-07-25T19:37:47.125Z,21.70
2018-07-25T19:40:16.392Z,21.50
2018-07-25T19:42:44.376Z,21.20
2018-07-25T19:45:12.346Z,21.30
2018-07-25T19:47:40.899Z,21.30
2018-07-25T19:50:09.456Z,21.30
2018-07-25T19:52:37.451Z,21.40
2018-07-25T19:55:05.552Z,21.30
2018-07-25T19:57:33.508Z,21.30
2018-07-25T20:00:01.420Z,21.30
2018-07-25T20:02:29.893Z,21.30
2018-07-25T20:04:59.276Z,21.20
2018-07-25T20:07:27.979Z,21.20
2018-07-25T20:09:56.561Z,21.20
2018-07-25T20:12:24.510Z,21.20
2018-07-25T20:14:58.124Z,21.10
2018-07-25T20:17:26.059Z,21.00
2018-07-25T20:19:54.152Z,21.00
2018-07-25T20:22:22.083Z,21.00
2018-07-25T20:27:17.730Z,21.00
2018-07-25T20:29:46.340Z,20.80
2018-07-25T20:32:14.358Z,20.70
2018-07-25T20:37:10.071Z,20.60
2018-07-25T20:39:38.059Z,20.60
2018-07-25T20:47:02.029Z,20.70
2018-07-25T20:49:29.966Z,20.80
2018-07-25T20:54:26.514Z,20.70
2018-07-25T20:56:55.065Z,20.50
2018-07-25T21:01:51.318Z,20.30
2018-07-25T21:04:19.258Z,20.20
2018-07-25T21:06:47.182Z,20.30
2018-07-25T21:09:15.732Z,20.30
2018-07-25T21:14:16.748Z,20.20
2018-07-25T21:16:44.601Z,20.30
2018-07-25T21:19:12.764Z,20.30
2018-07-25T21:24:10.112Z,20.20
2018-07-25T21:29:06.465Z,20.10
2018-07-25T21:34:04.183Z,20.20
2018-07-25T21:36:32.139Z,20.10
2018-07-25T21:39:00.113Z,20.10
2018-07-25T21:41:28.593Z,20.00
2018-07-25T21:43:56.534Z,20.00
2018-07-25T21:48:52.832Z,19.90
2018-07-25T21:51:22.000Z,20.00
2018-07-25T21:53:49.954Z,20.00
2018-07-25T21:56:18.006Z,20.00
2018-07-25T21:58:47.171Z,19.90
2018-07-25T22:01:17.861Z,19.80
2018-07-25T22:06:15.415Z,19.70
2018-07-25T22:08:44.545Z,19.60
2018-07-25T22:11:13.071Z,19.50
2018-07-25T22:13:46.640Z,19.40
2018-07-25T22:16:14.544Z,19.50
2018-07-25T22:18:43.112Z,19.40
2018-07-25T22:21:11.805Z,19.40
2018-07-25T22:23:39.746Z,19.40
2018-07-25T22:26:08.358Z,19.40
2018-07-25T22:28:36.253Z,19.50
2018-07-25T22:31:04.206Z,19.60
2018-07-25T22:33:32.090Z,19.60
2018-07-25T22:36:00.043Z,19.50
2018-07-25T22:38:28.468Z,19.40
2018-07-25T22:43:24.764Z,19.40
2018-07-25T22:45:53.270Z,19.50
2018-07-25T22:48:21.126Z,19.40
2018-07-25T22:50:49.015Z,19.30
2018-07-25T22:53:16.945Z,19.30
2018-07-25T22:55:45.709Z,19.30
2018-07-25T22:58:13.623Z,19.20
2018-07-25T23:00:41.666Z,19.20
2018-07-25T23:03:09.616Z,19.10
2018-07-25T23:05:38.502Z,19.20
2018-07-25T23:08:07.470Z,19.20
2018-07-25T23:10:35.395Z,19.30
2018-07-25T23:13:03.292Z,19.30
2018-07-25T23:15:31.727Z,19.20
2018-07-25T23:17:59.710Z,19.20
2018-07-25T23:20:28.346Z,19.00
2018-07-25T23:23:00.573Z,19.00
2018-07-25T23:25:29.734Z,18.90
2018-07-25T23:27:58.894Z,18.90
2018-07-25T23:30:28.085Z,18.80
2018-07-25T23:32:55.996Z,18.80
2018-07-25T23:35:24.418Z,18.80
2018-07-25T23:37:53.667Z,18.70
2018-07-25T23:40:21.625Z,18.70
2018-07-25T23:45:18.244Z,18.80
2018-07-25T23:47:46.164Z,18.80
2018-07-25T23:50:14.082Z,18.70
2018-07-25T23:52:42.000Z,18.70
2018-07-25T23:55:10.161Z,18.70
